Time;durP1;ratioP1;P1;durP2;ratioP2;P2;SDS_P1;SDS_P2;PMS_P1;PMS_P2;Temp;Humidity;BMP_temperature;BMP_pressure;BME280_temperature;BME280_humidity;BME280_pressure;Samples;Min_cycle;Max_cycle;Signal;HPM_P1;HPM_P2
2023/03/16 00:00:47;;;;;;;7.90;4.80;;;;;;;5.61;69.14;101721.38;5076824;28;20024;-63
2023/03/16 00:03:18;;;;;;;8.45;5.03;;;;;;;5.59;69.48;101720.38;5076041;28;20539;-64
2023/03/16 00:05:48;;;;;;;7.30;4.90;;;;;;;5.59;69.77;101722.09;5076401;28;20085;-63
2023/03/16 00:08:15;;;;;;;8.07;4.88;;;;;;;5.61;69.37;101720.44;5076009;28;20394;-64
2023/03/16 00:10:45;;;;;;;10.70;5.35;;;;;;;5.59;69.95;101714.25;5075888;28;20077;-64
2023/03/16 00:13:15;;;;;;;7.20;5.10;;;;;;;5.58;69.97;101713.34;5076276;28;20529;-64
2023/03/16 00:15:48;;;;;;;8.50;4.80;;;;;;;5.49;70.92;101707.69;5058031;28;20402;-63
2023/03/16 00:18:13;;;;;;;8.02;4.72;;;;;;;5.45;70.86;101696.19;5075618;28;20049;-64
2023/03/16 00:20:39;;;;;;;8.10;5.07;;;;;;;5.44;70.75;101699.63;5075785;28;20498;-64
2023/03/16 00:23:04;;;;;;;8.00;5.00;;;;;;;5.44;70.67;101697.00;5075994;28;20025;-64
2023/03/16 00:25:32;;;;;;;8.38;5.60;;;;;;;5.44;70.56;101694.41;5075762;28;20029;-63
2023/03/16 00:27:57;;;;;;;8.10;5.10;;;;;;;5.43;71.20;101691.69;5075816;28;20034;-64
2023/03/16 00:30:23;;;;;;;7.45;5.53;;;;;;;5.41;71.68;101701.22;5075686;28;20024;-63
2023/03/16 00:32:49;;;;;;;7.03;5.25;;;;;;;5.43;71.25;101696.91;5075028;28;20041;-63
2023/03/16 00:35:14;;;;;;;9.05;5.40;;;;;;;5.39;71.20;101687.13;5075580;28;20470;-63
2023/03/16 00:37:41;;;;;;;10.10;5.13;;;;;;;5.37;72.44;101686.19;5075478;28;20036;-63
2023/03/16 00:40:08;;;;;;;8.00;5.07;;;;;;;5.37;72.09;101681.81;5075553;28;20028;-63
2023/03/16 00:42:33;;;;;;;6.78;4.35;;;;;;;5.48;70.90;101684.91;5075680;28;20033;-63
2023/03/16 00:45:00;;;;;;;8.07;5.05;;;;;;;5.44;71.63;101670.81;5057646;28;20040;-63
2023/03/16 00:47:28;;;;;;;9.95;5.50;;;;;;;5.38;72.22;101678.38;5040689;28;20177;-64
2023/03/16 00:49:54;;;;;;;8.10;4.97;;;;;;;5.38;71.82;101675.75;5075325;28;20021;-64
2023/03/16 00:52:22;;;;;;;7.47;5.00;;;;;;;5.38;72.71;101674.84;5075285;28;20077;-64
2023/03/16 00:54:48;;;;;;;9.63;5.40;;;;;;;5.40;72.81;101679.34;5057593;28;20033;-63
2023/03/16 00:57:17;;;;;;;9.02;5.15;;;;;;;5.40;72.07;101673.22;5057056;28;20385;-63
2023/03/16 00:59:43;;;;;;;7.20;5.20;;;;;;;5.37;72.23;101666.09;5075337;28;20036;-64
2023/03/16 01:02:09;;;;;;;7.28;5.00;;;;;;;5.31;72.46;101655.34;5056936;28;20389;-63
2023/03/16 01:04:35;;;;;;;7.10;4.88;;;;;;;5.32;72.84;101659.75;5057220;28;20032;-64
2023/03/16 01:07:02;;;;;;;7.18;5.00;;;;;;;5.28;73.09;101655.22;5074771;28;20025;-64
2023/03/16 01:09:28;;;;;;;8.13;4.82;;;;;;;5.24;73.35;101645.41;5074563;28;20106;-63
2023/03/16 01:11:53;;;;;;;8.13;5.22;;;;;;;5.23;73.50;101647.16;5075162;28;20115;-64
2023/03/16 01:14:20;;;;;;;7.70;4.78;;;;;;;5.24;73.17;101635.84;5074702;28;20056;-64
2023/03/16 01:16:46;;;;;;;8.50;5.00;;;;;;;5.30;73.01;101637.81;5074874;28;20024;-64
2023/03/16 01:19:13;;;;;;;9.75;5.50;;;;;;;5.28;73.38;101629.91;5074649;28;20045;-64
2023/03/16 01:21:41;;;;;;;8.63;5.43;;;;;;;5.27;73.13;101628.13;5074724;28;20029;-63
2023/03/16 01:24:07;;;;;;;11.10;5.68;;;;;;;5.22;73.52;101619.16;5074649;28;20020;-64
2023/03/16 01:26:33;;;;;;;7.68;4.97;;;;;;;5.23;72.98;101620.06;5075201;28;20462;-64
2023/03/16 01:28:59;;;;;;;9.60;5.10;;;;;;;5.16;74.23;101611.00;5076013;28;20036;-64
2023/03/16 01:31:24;;;;;;;7.57;4.90;;;;;;;5.14;74.01;101622.22;5076949;28;20108;-64
2023/03/16 01:33:51;;;;;;;9.75;5.05;;;;;;;5.15;73.88;101617.09;5058085;28;20550;-64
2023/03/16 01:36:18;;;;;;;9.60;5.00;;;;;;;5.16;73.90;101605.78;5074743;28;20044;-64
2023/03/16 01:38:44;;;;;;;10.30;5.10;;;;;;;5.12;75.29;101610.81;5074352;28;20032;-64
2023/03/16 01:41:10;;;;;;;8.93;5.60;;;;;;;5.10;74.91;101608.13;5074296;28;20028;-64
2023/03/16 01:43:37;;;;;;;7.97;5.38;;;;;;;5.10;74.68;101604.63;5074524;28;20142;-64
2023/03/16 01:46:03;;;;;;;10.43;5.20;;;;;;;5.08;75.42;101614.09;5074400;28;20025;-63
2023/03/16 01:48:36;;;;;;;7.55;5.15;;;;;;;5.09;75.49;101611.53;5074077;28;20028;-63
2023/03/16 01:51:21;;;;;;;7.03;4.80;;;;;;;5.09;74.68;101614.16;5074209;28;20033;-64
2023/03/16 01:53:55;;;;;;;9.70;5.03;;;;;;;5.07;75.68;101610.59;5073311;28;20469;-64
2023/03/16 01:56:37;;;;;;;8.40;5.03;;;;;;;5.07;74.93;101602.75;5074240;28;20058;-64
2023/03/16 01:59:10;;;;;;;10.73;5.47;;;;;;;5.01;75.93;101599.81;5074030;28;20086;-63
2023/03/16 02:01:36;;;;;;;9.20;5.30;;;;;;;5.03;76.54;101592.94;5074217;28;20275;-64
2023/03/16 02:04:15;;;;;;;8.45;4.97;;;;;;;5.04;75.77;101592.13;5073734;28;20028;-64
2023/03/16 02:06:43;;;;;;;8.13;5.18;;;;;;;5.08;75.73;101595.78;5073822;28;20044;-64
2023/03/16 02:09:09;;;;;;;8.18;5.65;;;;;;;5.08;75.83;101588.81;5073783;28;20107;-64
2023/03/16 02:11:35;;;;;;;7.50;5.18;;;;;;;5.09;75.96;101584.47;5073804;28;20056;-64
2023/03/16 02:14:08;;;;;;;7.70;5.32;;;;;;;5.13;75.23;101582.03;5073948;28;20029;-64
2023/03/16 02:16:33;;;;;;;7.90;5.55;;;;;;;5.12;75.40;101582.00;5074095;28;20111;-64
2023/03/16 02:18:58;;;;;;;9.00;5.78;;;;;;;5.09;76.04;101593.22;5072908;28;20058;-64
2023/03/16 02:21:32;;;;;;;12.02;5.93;;;;;;;5.06;75.68;101589.59;5055459;28;20040;-64
2023/03/16 02:23:58;;;;;;;7.63;4.97;;;;;;;5.07;76.01;101581.78;5073447;28;20032;-64
2023/03/16 02:26:43;;;;;;;10.25;5.10;;;;;;;5.06;76.00;101580.00;5073428;28;20501;-63
2023/03/16 02:29:41;;;;;;;6.40;4.45;;;;;;;5.08;76.20;101574.81;5073558;28;20032;-65
2023/03/16 02:32:07;;;;;;;10.02;5.00;;;;;;;5.08;76.61;101570.47;5052266;28;20040;-64
2023/03/16 02:34:34;;;;;;;7.95;5.03;;;;;;;5.05;76.81;101580.81;5073462;28;20051;-63
2023/03/16 02:37:00;;;;;;;8.10;5.30;;;;;;;5.05;76.60;101570.31;5055574;28;20095;-63
2023/03/16 02:39:25;;;;;;;9.68;4.63;;;;;;;5.01;77.43;101573.63;5073093;28;20036;-64
2023/03/16 02:41:51;;;;;;;7.57;4.90;;;;;;;4.98;76.83;101571.78;5073323;28;20033;-63
2023/03/16 02:44:23;;;;;;;9.23;5.50;;;;;;;4.97;77.15;101577.88;5073450;28;20043;-63
2023/03/16 02:46:51;;;;;;;6.90;5.00;;;;;;;4.92;77.77;101571.50;5073445;28;20024;-64
2023/03/16 02:49:32;;;;;;;8.52;5.10;;;;;;;4.94;78.01;101572.47;5073134;28;20362;-63
2023/03/16 02:51:58;;;;;;;8.25;5.25;;;;;;;4.88;77.95;101576.53;5073164;28;20043;-63
2023/03/16 02:54:23;;;;;;;7.05;5.30;;;;;;;4.84;77.80;101566.75;5073215;28;20024;-64
2023/03/16 02:56:49;;;;;;;10.23;5.15;;;;;;;4.84;79.05;101570.28;5055155;28;20489;-64
2023/03/16 02:59:15;;;;;;;7.35;5.15;;;;;;;4.85;78.75;101561.59;5073314;28;20037;-64
2023/03/16 03:01:40;;;;;;;9.00;5.20;;;;;;;4.86;79.54;101562.50;5073295;28;20025;-64
2023/03/16 03:04:07;;;;;;;8.95;5.30;;;;;;;4.82;79.16;101561.44;5055194;28;20028;-63
2023/03/16 03:06:32;;;;;;;8.63;5.10;;;;;;;4.83;78.87;101558.00;5072977;28;20547;-63
2023/03/16 03:08:58;;;;;;;7.38;4.70;;;;;;;4.87;78.97;101548.56;5072971;28;20029;-63
2023/03/16 03:11:24;;;;;;;9.50;5.97;;;;;;;4.82;79.26;101564.06;5073233;28;20033;-63
2023/03/16 03:13:49;;;;;;;11.95;4.55;;;;;;;4.81;79.70;101559.66;5072936;28;20029;-64
2023/03/16 03:16:15;;;;;;;9.27;5.25;;;;;;;4.78;79.22;101552.56;5073139;28;20374;-63
2023/03/16 03:18:40;;;;;;;8.02;4.82;;;;;;;4.79;79.29;101548.22;5072549;28;20052;-63
2023/03/16 03:21:06;;;;;;;7.13;5.07;;;;;;;4.79;79.43;101542.97;5054964;28;20025;-63
2023/03/16 03:23:33;;;;;;;9.10;4.90;;;;;;;4.83;79.31;101546.63;5073026;28;20112;-63
2023/03/16 03:25:59;;;;;;;8.45;4.82;;;;;;;4.80;79.20;101536.94;5072747;28;20025;-63
2023/03/16 03:28:25;;;;;;;9.40;5.20;;;;;;;4.82;79.51;101540.50;5072751;28;20031;-64
2023/03/16 03:30:50;;;;;;;8.95;5.03;;;;;;;4.82;79.40;101537.88;5073880;28;20456;-64
2023/03/16 03:33:16;;;;;;;7.25;4.75;;;;;;;4.83;79.19;101536.16;5076957;28;20037;-63
2023/03/16 03:35:42;;;;;;;9.15;4.53;;;;;;;4.80;79.79;101531.69;5076784;28;20052;-64
2023/03/16 03:38:07;;;;;;;8.90;4.80;;;;;;;4.80;78.91;101541.25;5076847;28;20059;-63
2023/03/16 03:40:33;;;;;;;6.68;4.88;;;;;;;4.78;79.58;101547.31;5076481;28;20055;-64
2023/03/16 03:42:59;;;;;;;8.52;4.97;;;;;;;4.79;78.97;101537.72;5076778;28;20029;-64
2023/03/16 03:45:24;;;;;;;7.88;4.90;;;;;;;4.81;79.41;101540.44;5058678;28;20075;-63
2023/03/16 03:47:50;;;;;;;8.70;4.90;;;;;;;4.82;79.86;101534.38;5076583;28;20545;-63
2023/03/16 03:50:15;;;;;;;8.40;4.72;;;;;;;4.81;79.45;101541.34;5076739;28;20035;-64
2023/03/16 03:52:41;;;;;;;7.35;4.80;;;;;;;4.82;78.76;101537.00;5076709;28;20489;-63
2023/03/16 03:55:07;;;;;;;7.03;4.85;;;;;;;4.77;79.16;101540.28;5058770;28;20474;-63
2023/03/16 03:57:32;;;;;;;8.15;5.40;;;;;;;4.75;79.66;101543.66;5076281;28;20031;-63
2023/03/16 03:59:58;;;;;;;11.93;5.20;;;;;;;4.74;79.39;101539.25;5076299;28;20016;-63
2023/03/16 04:02:23;;;;;;;8.07;4.85;;;;;;;4.76;79.81;101529.75;5076041;28;20036;-64
2023/03/16 04:04:49;;;;;;;7.85;4.97;;;;;;;4.75;79.69;101527.94;5076250;28;20139;-64
2023/03/16 04:07:14;;;;;;;11.75;5.18;;;;;;;4.72;79.85;101518.25;5076498;28;20390;-63
2023/03/16 04:09:40;;;;;;;10.00;4.95;;;;;;;4.73;79.20;101517.41;5076057;28;20470;-64
2023/03/16 04:12:06;;;;;;;7.65;4.82;;;;;;;4.71;79.68;101515.53;5076314;28;20071;-63
2023/03/16 04:14:32;;;;;;;9.45;4.90;;;;;;;4.72;79.99;101517.38;5076223;28;20017;-64
2023/03/16 04:16:58;;;;;;;7.40;4.70;;;;;;;4.72;79.49;101504.28;5075968;28;20476;-64
2023/03/16 04:19:24;;;;;;;10.07;5.18;;;;;;;4.71;80.15;101508.63;5075833;28;20040;-64
2023/03/16 04:21:50;;;;;;;8.18;4.88;;;;;;;4.73;79.95;101501.72;5075846;28;20078;-64
2023/03/16 04:24:16;;;;;;;8.82;4.90;;;;;;;4.75;79.77;101500.06;5076422;28;20119;-63
2023/03/16 04:26:46;;;;;;;8.90;5.25;;;;;;;4.78;79.95;101501.91;5079664;28;20032;-64
2023/03/16 04:29:13;;;;;;;7.43;4.53;;;;;;;4.80;79.55;101510.75;5098999;28;20059;-64
2023/03/16 04:31:39;;;;;;;7.97;4.35;;;;;;;4.76;79.83;101507.09;5099317;28;20012;-63
2023/03/16 04:34:05;;;;;;;7.60;4.45;;;;;;;4.76;79.54;101517.56;5081359;28;20028;-63
2023/03/16 04:36:31;;;;;;;7.32;4.35;;;;;;;4.77;79.52;101510.59;5075744;28;20078;-64
2023/03/16 04:38:57;;;;;;;6.32;4.03;;;;;;;4.81;79.75;101507.31;5057496;28;20039;-63
2023/03/16 04:41:23;;;;;;;7.70;4.10;;;;;;;4.82;79.82;101503.84;5075607;28;20028;-63
2023/03/16 04:43:48;;;;;;;7.57;4.43;;;;;;;4.84;79.61;101504.81;5074861;28;20029;-63
2023/03/16 04:46:14;;;;;;;7.28;3.88;;;;;;;4.85;79.00;101508.34;5057940;28;20059;-63
2023/03/16 04:48:39;;;;;;;8.55;4.20;;;;;;;4.84;78.80;101501.28;5075305;28;20032;-63
2023/03/16 04:51:05;;;;;;;7.30;3.83;;;;;;;4.83;79.47;101505.63;5075412;28;20478;-63
2023/03/16 04:53:31;;;;;;;6.82;4.53;;;;;;;4.83;79.74;101507.34;5075608;28;20075;-63
2023/03/16 04:55:57;;;;;;;10.43;4.43;;;;;;;4.80;79.58;101495.03;5075255;28;20028;-64
2023/03/16 04:58:23;;;;;;;8.57;4.30;;;;;;;4.81;79.75;101499.44;5075176;28;20037;-63
2023/03/16 05:00:51;;;;;;;7.70;4.15;;;;;;;4.79;79.88;101498.47;5075504;28;20036;-63
2023/03/16 05:03:16;;;;;;;6.15;4.10;;;;;;;4.81;80.37;101494.22;5075182;28;20474;-64
2023/03/16 05:05:42;;;;;;;9.38;4.35;;;;;;;4.81;80.40;101494.22;5075113;28;20024;-64
2023/03/16 05:08:09;;;;;;;6.68;4.40;;;;;;;4.85;80.05;101490.91;5075207;28;20428;-63
2023/03/16 05:10:35;;;;;;;6.43;4.00;;;;;;;4.85;80.25;101496.13;5074903;28;20060;-64
2023/03/16 05:13:01;;;;;;;8.18;4.43;;;;;;;4.81;79.82;101491.59;5075009;28;20466;-63
2023/03/16 05:15:26;;;;;;;7.07;4.43;;;;;;;4.81;nan;101488.97;5057106;28;20040;-63
2023/03/16 05:17:54;;;;;;;9.18;4.70;;;;;;;4.77;80.52;101480.06;5074638;28;20059;-63
2023/03/16 05:20:21;;;;;;;12.20;4.30;;;;;;;4.81;81.36;101481.13;5074763;28;20032;-63
2023/03/16 05:22:47;;;;;;;7.60;4.32;;;;;;;4.85;80.57;101479.53;5074713;28;20035;-63
2023/03/16 05:25:13;;;;;;;9.35;4.50;;;;;;;4.80;80.70;101471.47;5074964;28;20028;-63
2023/03/16 05:27:47;;;;;;;7.70;4.40;;;;;;;4.81;81.16;101475.00;5074584;28;20030;-63
2023/03/16 05:30:15;;;;;;;9.35;4.13;;;;;;;4.83;80.91;101481.16;5074598;28;20047;-63
2023/03/16 05:32:41;;;;;;;8.07;3.92;;;;;;;4.82;81.41;101471.53;5074422;28;20052;-64
2023/03/16 05:35:07;;;;;;;6.85;4.18;;;;;;;4.81;81.09;101485.47;5074440;28;20024;-63
2023/03/16 05:37:36;;;;;;;9.13;4.07;;;;;;;4.80;81.69;101475.78;5074449;28;20115;-63
2023/03/16 05:40:39;;;;;;;8.20;4.03;;;;;;;4.78;81.36;101471.38;5074338;28;20071;-63
2023/03/16 05:42:59;;;;;;;6.20;3.90;;;;;;;4.80;81.75;101461.00;5069303;28;20040;-64
2023/03/16 05:45:24;;;;;;;4.95;3.70;;;;;;;4.78;82.36;101465.25;5056501;28;20478;-63
2023/03/16 05:47:50;;;;;;;8.60;4.00;;;;;;;4.82;81.25;101459.34;5056447;28;20073;-63
2023/03/16 05:50:16;;;;;;;7.32;3.83;;;;;;;4.86;81.65;101452.50;5074355;28;20025;-63
2023/03/16 05:52:43;;;;;;;8.15;3.92;;;;;;;4.86;81.90;101455.13;5074267;28;20378;-63
2023/03/16 05:55:09;;;;;;;6.47;4.15;;;;;;;4.87;82.50;101459.53;5072968;28;20428;-63
2023/03/16 05:57:35;;;;;;;5.57;3.72;;;;;;;4.87;82.48;101457.81;5073951;28;20028;-64
2023/03/16 06:00:16;;;;;;;7.32;4.10;;;;;;;4.89;81.93;101452.66;5074191;28;20033;-63
2023/03/16 06:02:46;;;;;;;7.43;4.30;;;;;;;4.90;82.60;101457.06;5074122;28;20028;-64
2023/03/16 06:05:11;;;;;;;8.18;4.55;;;;;;;4.84;82.96;101447.22;5073808;28;20047;-63
2023/03/16 06:07:36;;;;;;;7.18;4.35;;;;;;;4.82;82.74;101448.84;5073731;28;20020;-64
2023/03/16 06:10:03;;;;;;;8.15;4.30;;;;;;;4.83;83.07;101449.75;5073592;28;20040;-64
2023/03/16 06:12:29;;;;;;;9.75;4.10;;;;;;;4.88;81.90;101453.47;5073973;28;20155;-63
2023/03/16 06:14:54;;;;;;;6.93;4.00;;;;;;;4.88;81.75;101453.47;5073739;28;20107;-63
2023/03/16 06:17:20;;;;;;;7.40;4.18;;;;;;;4.87;82.25;101457.81;5074374;28;20139;-63
2023/03/16 06:19:45;;;;;;;6.50;4.13;;;;;;;4.89;82.34;101460.50;5073962;28;20048;-63
2023/03/16 06:22:11;;;;;;;7.00;4.32;;;;;;;4.86;82.17;101457.75;5073669;28;20037;-63
2023/03/16 06:24:36;;;;;;;6.57;3.92;;;;;;;4.88;82.70;101463.94;5073634;28;20470;-63
2023/03/16 06:27:02;;;;;;;6.15;3.78;;;;;;;4.88;83.20;101456.06;5073596;28;20029;-63
2023/03/16 06:29:28;;;;;;;10.85;4.20;;;;;;;4.91;82.69;101446.63;5073411;28;20102;-63
2023/03/16 06:31:54;;;;;;;10.57;4.47;;;;;;;4.94;81.84;101448.50;5055499;28;20024;-63
2023/03/16 06:34:19;;;;;;;7.90;4.07;;;;;;;4.95;82.61;101451.19;5073307;28;20397;-63
2023/03/16 06:36:44;;;;;;;9.65;4.40;;;;;;;4.96;82.77;101455.56;5073309;28;20032;-63
2023/03/16 06:39:10;;;;;;;9.90;4.30;;;;;;;4.99;82.67;101447.88;5073074;28;20028;-63
2023/03/16 06:41:36;;;;;;;8.65;4.40;;;;;;;5.01;82.73;101454.06;5073519;28;20036;-63
2023/03/16 06:44:04;;;;;;;8.90;4.25;;;;;;;5.02;83.40;101445.38;5055716;28;20024;-63
2023/03/16 06:46:31;;;;;;;7.53;4.20;;;;;;;5.05;82.58;101456.81;5073287;28;20525;-63
2023/03/16 06:48:57;;;;;;;6.97;4.00;;;;;;;5.06;83.46;101456.91;5073194;28;20082;-63
2023/03/16 06:51:22;;;;;;;8.32;4.22;;;;;;;5.08;83.78;101454.31;5073120;28;20029;-63
2023/03/16 06:53:48;;;;;;;7.50;4.15;;;;;;;5.13;82.54;101452.78;5073102;28;20032;-63
2023/03/16 06:56:13;;;;;;;8.68;3.92;;;;;;;5.17;82.55;101445.13;5073185;28;20025;-63
2023/03/16 06:58:39;;;;;;;8.55;4.30;;;;;;;5.18;83.43;101444.31;5055146;28;20028;-63
2023/03/16 07:01:04;;;;;;;7.82;4.10;;;;;;;5.21;82.91;101447.03;5055360;28;20094;-63
2023/03/16 07:03:30;;;;;;;6.88;4.00;;;;;;;5.21;83.19;101459.25;5073000;28;20040;-63
2023/03/16 07:05:56;;;;;;;7.20;3.83;;;;;;;5.25;82.52;101441.09;5072723;28;20029;-63
2023/03/16 07:08:21;;;;;;;8.25;4.05;;;;;;;5.25;83.89;101440.22;5073149;28;20021;-63
2023/03/16 07:10:47;;;;;;;10.88;3.70;;;;;;;5.30;83.20;101440.41;5073072;28;20024;-63
2023/03/16 07:13:12;;;;;;;7.43;3.92;;;;;;;5.29;82.59;101431.66;5072908;28;20382;-64
2023/03/16 07:15:38;;;;;;;6.70;3.95;;;;;;;5.30;82.71;101437.78;5054885;28;20034;-63
2023/03/16 07:18:04;;;;;;;9.00;4.03;;;;;;;5.35;82.84;101441.47;5072660;28;20044;-64
2023/03/16 07:20:31;;;;;;;6.50;3.72;;;;;;;5.37;82.93;101431.97;5072923;28;20028;-63
2023/03/16 07:22:57;;;;;;;6.45;3.80;;;;;;;5.40;82.39;101440.88;5072997;28;20059;-63
2023/03/16 07:25:22;;;;;;;6.55;3.78;;;;;;;5.43;82.78;101427.84;5073947;28;20378;-64
2023/03/16 07:27:48;;;;;;;6.75;3.92;;;;;;;5.50;82.28;101429.91;5075391;28;20028;-64
2023/03/16 07:30:13;;;;;;;6.47;3.63;;;;;;;5.52;82.01;101425.63;5075817;28;20439;-63
2023/03/16 07:32:41;;;;;;;7.75;3.55;;;;;;;5.57;81.79;101424.91;5073792;28;20025;-63
2023/03/16 07:35:10;;;;;;;7.22;3.90;;;;;;;5.61;81.75;101427.75;5054725;28;20504;-64
2023/03/16 07:37:36;;;;;;;10.70;4.10;;;;;;;5.65;81.75;101420.84;5072685;28;20051;-64
2023/03/16 07:40:02;;;;;;;7.47;3.58;;;;;;;5.68;80.97;101414.00;5072716;28;20032;-64
2023/03/16 07:42:28;;;;;;;6.35;3.53;;;;;;;5.72;81.44;101420.28;5072499;28;20032;-64
2023/03/16 07:44:53;;;;;;;5.55;3.40;;;;;;;5.75;80.33;101423.94;5072448;28;20096;-64
2023/03/16 07:47:19;;;;;;;9.77;4.22;;;;;;;5.80;81.70;101420.59;5072879;28;20028;-64
2023/03/16 07:49:44;;;;;;;7.03;3.67;;;;;;;5.82;80.49;101421.53;5072211;28;20085;-64
2023/03/16 07:52:12;;;;;;;6.18;3.88;;;;;;;5.84;80.86;101426.00;5072433;28;20466;-64
2023/03/16 07:54:39;;;;;;;6.53;3.55;;;;;;;5.88;79.78;101424.41;5072630;28;20116;-64
2023/03/16 07:57:05;;;;;;;7.10;3.88;;;;;;;5.90;79.20;101431.47;5072433;28;20035;-64
2023/03/16 07:59:30;;;;;;;8.55;3.92;;;;;;;5.89;79.40;101419.22;5072295;28;20036;-64
2023/03/16 08:01:56;;;;;;;8.32;4.18;;;;;;;5.92;79.39;101413.25;5072311;28;20035;-64
2023/03/16 08:04:22;;;;;;;9.68;4.20;;;;;;;5.92;78.37;101427.25;5072492;28;20106;-64
2023/03/16 08:06:47;;;;;;;10.48;4.60;;;;;;;5.94;78.56;101429.91;5072476;28;20485;-64
2023/03/16 08:09:13;;;;;;;6.72;3.78;;;;;;;5.97;78.95;101420.44;5054016;28;20111;-64
2023/03/16 08:11:38;;;;;;;8.00;4.35;;;;;;;5.99;78.29;101421.38;5072832;28;20044;-64
2023/03/16 08:14:07;;;;;;;6.25;4.10;;;;;;;6.06;77.99;101421.63;5072132;28;20032;-65
2023/03/16 08:16:33;;;;;;;7.18;4.13;;;;;;;6.10;77.69;101418.28;5072187;28;20382;-64
2023/03/16 08:18:58;;;;;;;8.80;4.63;;;;;;;6.13;78.09;101416.69;5074590;28;20132;-64
2023/03/16 08:21:24;;;;;;;10.73;4.50;;;;;;;6.19;76.72;101422.16;5076035;28;20036;-64
2023/03/16 08:23:50;;;;;;;7.38;3.92;;;;;;;6.22;77.66;101421.38;5075870;28;20508;-64
2023/03/16 08:26:17;;;;;;;8.88;4.32;;;;;;;6.26;77.41;101418.94;5075588;28;20390;-64
2023/03/16 08:28:46;;;;;;;6.93;4.45;;;;;;;6.30;77.19;101429.53;5075628;28;20052;-64
2023/03/16 08:31:13;;;;;;;8.05;4.45;;;;;;;6.34;76.79;101418.28;5075677;28;20115;-64
2023/03/16 08:33:43;;;;;;;9.45;4.32;;;;;;;6.35;76.62;101426.25;5075626;28;20025;-64
2023/03/16 08:36:11;;;;;;;6.95;3.83;;;;;;;6.41;76.00;101426.47;5075547;28;20485;-64
2023/03/16 08:38:38;;;;;;;8.15;4.40;;;;;;;6.44;76.63;101429.22;5075526;28;20036;-64
2023/03/16 08:41:04;;;;;;;8.20;4.15;;;;;;;6.49;76.03;101426.75;5075420;28;20421;-64
2023/03/16 08:43:30;;;;;;;6.25;4.35;;;;;;;6.56;75.09;101434.03;5057501;28;20470;-64
2023/03/16 08:45:56;;;;;;;9.18;4.43;;;;;;;6.59;74.84;101420.09;5075348;28;20025;-64
2023/03/16 08:48:21;;;;;;;6.55;4.22;;;;;;;6.69;75.56;101424.84;5057217;28;20036;-64
2023/03/16 08:50:48;;;;;;;7.72;3.90;;;;;;;6.69;74.08;101427.47;5075237;28;20090;-64
2023/03/16 08:53:14;;;;;;;6.32;3.72;;;;;;;6.73;74.07;101425.00;5075176;28;20082;-64
2023/03/16 08:55:40;;;;;;;6.90;4.07;;;;;;;6.77;74.29;101405.91;5057153;28;20029;-64
2023/03/16 08:58:07;;;;;;;6.47;3.72;;;;;;;6.85;73.84;101435.06;5075101;28;20059;-64
2023/03/16 09:00:33;;;;;;;7.55;3.80;;;;;;;6.93;72.79;101415.19;5057139;28;20051;-64
2023/03/16 09:02:59;;;;;;;5.57;3.58;;;;;;;6.97;72.30;101405.69;5074887;28;20473;-64
2023/03/16 09:05:25;;;;;;;7.78;3.80;;;;;;;6.98;73.34;101404.84;5074956;28;20031;-64
2023/03/16 09:07:52;;;;;;;6.50;3.97;;;;;;;7.01;71.42;101408.47;5074945;28;20094;-64
2023/03/16 09:10:21;;;;;;;7.10;4.00;;;;;;;7.05;72.35;101400.69;5074781;28;20031;-64
2023/03/16 09:12:48;;;;;;;8.40;3.75;;;;;;;7.08;72.17;101393.81;5074836;28;20039;-64
2023/03/16 09:15:14;;;;;;;10.88;4.28;;;;;;;7.16;71.66;101392.34;5057320;28;20025;-64
2023/03/16 09:17:40;;;;;;;7.82;3.78;;;;;;;7.25;71.25;101395.25;5074346;28;20519;-64
2023/03/16 09:20:08;;;;;;;7.00;3.60;;;;;;;7.36;71.37;101416.63;5074864;28;20057;-64
2023/03/16 09:22:35;;;;;;;7.85;4.00;;;;;;;7.44;71.51;101395.84;5074660;28;20069;-64
2023/03/16 09:25:00;;;;;;;7.32;3.95;;;;;;;7.56;70.67;101388.34;5074868;28;20033;-64
2023/03/16 09:27:25;;;;;;;7.18;3.67;;;;;;;7.65;69.06;101404.41;5074591;28;20040;-64
2023/03/16 09:29:54;;;;;;;5.38;3.53;;;;;;;7.73;69.90;101397.66;5074507;28;20486;-64
2023/03/16 09:32:20;;;;;;;9.70;3.83;;;;;;;7.81;68.79;101397.91;5074350;28;20097;-64
2023/03/16 09:34:46;;;;;;;5.63;3.47;;;;;;;7.91;69.57;101399.06;5073519;28;20547;-65
2023/03/16 09:37:12;;;;;;;7.40;3.63;;;;;;;8.01;67.86;101404.69;5056309;28;20025;-64
2023/03/16 09:39:38;;;;;;;7.55;3.50;;;;;;;8.17;68.09;101394.59;5074178;28;20147;-64
2023/03/16 09:42:07;;;;;;;7.53;3.60;;;;;;;8.26;67.15;101381.69;5074219;28;20505;-64
2023/03/16 09:44:58;;;;;;;7.65;3.15;;;;;;;8.38;67.08;101394.34;5074134;28;20144;-63
2023/03/16 09:47:30;;;;;;;7.18;3.40;;;;;;;8.47;65.81;101402.50;5056188;28;20162;-64
2023/03/16 09:50:03;;;;;;;7.30;3.10;;;;;;;8.66;64.39;101398.66;5073848;28;20458;-64
2023/03/16 09:52:38;;;;;;;6.97;3.58;;;;;;;9.06;65.27;101386.53;5074072;28;20051;-64
2023/03/16 09:55:07;;;;;;;8.63;4.07;;;;;;;9.59;63.02;101405.41;5073966;28;20067;-64
2023/03/16 09:57:40;;;;;;;7.80;3.10;;;;;;;9.86;60.27;101376.13;5074171;28;20024;-64
2023/03/16 10:00:16;;;;;;;6.20;3.20;;;;;;;9.91;60.41;101391.22;5074273;28;20024;-64
2023/03/16 10:02:44;;;;;;;7.00;3.10;;;;;;;9.96;58.91;101368.44;5073642;28;20032;-64
2023/03/16 10:05:16;;;;;;;7.00;3.10;;;;;;;10.07;58.84;101359.88;5074023;28;20028;-63
2023/03/16 10:07:51;;;;;;;6.33;3.10;;;;;;;10.09;59.18;101353.75;5055807;28;20495;-65
2023/03/16 10:10:39;;;;;;;6.18;3.05;;;;;;;10.08;59.37;101359.91;5073501;28;20021;-64
2023/03/16 10:13:16;;;;;;;5.63;3.05;;;;;;;10.24;58.74;101372.59;5035516;28;20069;-65
2023/03/16 10:15:43;;;;;;;5.43;3.03;;;;;;;10.45;57.12;101342.19;5073550;28;20107;-64
2023/03/16 10:18:19;;;;;;;5.40;3.22;;;;;;;10.59;57.58;101348.63;5073474;28;20144;-64
2023/03/16 10:20:46;;;;;;;5.30;3.00;;;;;;;10.80;57.11;101345.47;5073618;28;20028;-64
2023/03/16 10:23:25;;;;;;;4.63;3.05;;;;;;;11.05;56.81;101341.50;5074091;28;20040;-64
2023/03/16 10:25:53;;;;;;;6.07;3.00;;;;;;;11.19;55.82;101341.72;5075227;28;20017;-64
2023/03/16 10:28:22;;;;;;;6.28;3.03;;;;;;;11.28;53.86;101347.16;5074944;28;20031;-65
2023/03/16 10:30:50;;;;;;;10.57;2.97;;;;;;;11.37;54.55;101355.25;5073582;28;20060;-65
2023/03/16 10:33:27;;;;;;;5.85;3.00;;;;;;;11.54;55.88;101344.91;5073227;28;20047;-65
2023/03/16 10:36:18;;;;;;;7.97;2.90;;;;;;;11.43;53.31;101351.78;5073423;28;20033;-65
2023/03/16 10:38:51;;;;;;;4.25;2.50;;;;;;;11.38;53.54;101337.59;5073651;28;20074;-65
2023/03/16 10:41:16;;;;;;;4.97;2.70;;;;;;;11.48;52.79;101337.78;5072565;28;20036;-65
2023/03/16 10:43:46;;;;;;;4.88;2.80;;;;;;;11.48;52.50;101360.72;5073209;28;20027;-65
2023/03/16 10:46:12;;;;;;;6.70;2.80;;;;;;;11.64;52.71;101337.97;5073923;28;20095;-65
2023/03/16 10:48:39;;;;;;;6.70;3.00;;;;;;;11.86;52.12;101340.13;5072930;28;20497;-65
2023/03/16 10:51:12;;;;;;;5.55;2.67;;;;;;;12.00;51.72;101325.28;5073305;28;20020;-68
2023/03/16 10:53:41;;;;;;;7.18;2.70;;;;;;;12.16;51.37;101331.66;5073164;28;20036;-65
2023/03/16 10:56:18;;;;;;;3.97;2.50;;;;;;;12.15;48.96;101331.63;5072999;28;20421;-65
2023/03/16 10:58:44;;;;;;;3.75;2.50;;;;;;;12.24;49.36;101324.66;5073111;28;20078;-65
2023/03/16 11:01:30;;;;;;;5.60;2.60;;;;;;;12.39;49.94;101333.69;5061090;28;20047;-65
2023/03/16 11:03:57;;;;;;;4.70;2.50;;;;;;;12.41;48.56;101316.03;5052588;28;20072;-65
2023/03/16 11:06:31;;;;;;;7.18;2.80;;;;;;;12.39;49.84;101288.63;5052998;28;20103;-65
2023/03/16 11:09:13;;;;;;;5.80;2.72;;;;;;;12.39;49.13;101309.84;5052760;28;20044;-66
2023/03/16 11:11:39;;;;;;;5.28;2.55;;;;;;;12.34;49.44;101312.44;5052870;28;20039;-66
2023/03/16 11:14:12;;;;;;;6.78;2.55;;;;;;;12.28;49.03;101294.69;5056123;28;20096;-65
2023/03/16 11:16:44;;;;;;;6.57;2.50;;;;;;;12.32;49.40;101298.28;5056335;28;20466;-65
2023/03/16 11:19:33;;;;;;;9.10;2.80;;;;;;;12.38;49.76;101286.88;5056630;28;20041;-66
2023/03/16 11:22:10;;;;;;;6.18;2.85;;;;;;;12.28;48.22;101289.38;5053068;28;20112;-66
2023/03/16 11:24:48;;;;;;;4.78;2.38;;;;;;;12.20;48.57;101287.53;5052907;28;20075;-66
2023/03/16 11:27:43;;;;;;;3.60;2.22;;;;;;;12.27;48.37;101286.72;5052840;28;20036;-65
2023/03/16 11:30:14;;;;;;;6.25;2.47;;;;;;;12.25;48.43;101277.91;5052541;28;20025;-66
2023/03/16 11:32:59;;;;;;;3.60;2.40;;;;;;;12.26;48.97;101290.25;5053699;28;20103;-64
2023/03/16 11:35:38;;;;;;;8.32;2.75;;;;;;;12.30;49.31;101273.53;5036020;28;20036;-66